Time;durP1;ratioP1;P1;durP2;ratioP2;P2;SDS_P1;SDS_P2;PMS_P1;PMS_P2;Temp;Humidity;BMP_temperature;BMP_pressure;BME280_temperature;BME280_humidity;BME280_pressure;Samples;Min_cycle;Max_cycle;Signal;HPM_P1;HPM_P2
2024/01/27 00:02:18;;;;;;;5.83;3.10;;;3.40;99.90;;;;;;5073677;28;20840;-71
2024/01/27 00:04:43;;;;;;;17.00;3.30;;;3.40;99.90;;;;;;5073483;28;20182;-71
2024/01/27 00:07:09;;;;;;;3.20;1.90;;;3.30;99.90;;;;;;5073636;28;20162;-71
2024/01/27 00:09:34;;;;;;;20.50;4.17;;;3.30;99.90;;;;;;5073835;28;20162;-71
2024/01/27 00:12:00;;;;;;;4.23;1.80;;;3.30;99.90;;;;;;5073919;28;20245;-72
2024/01/27 00:14:26;;;;;;;9.67;2.03;;;3.30;99.90;;;;;;5073808;28;20193;-71
2024/01/27 00:16:52;;;;;;;13.73;2.13;;;3.20;99.90;;;;;;5073535;28;20194;-71
2024/01/27 00:19:17;;;;;;;5.20;1.90;;;3.20;99.90;;;;;;5073794;28;20762;-70
2024/01/27 00:21:43;;;;;;;7.43;1.70;;;3.30;99.90;;;;;;5073718;28;20633;-70
2024/01/27 00:24:08;;;;;;;4.40;1.40;;;3.30;99.90;;;;;;5073393;28;20163;-71
2024/01/27 00:26:34;;;;;;;17.03;2.00;;;3.30;99.90;;;;;;5073376;28;20178;-71
2024/01/27 00:28:59;;;;;;;3.73;1.87;;;3.30;99.90;;;;;;5073360;28;20178;-70
2024/01/27 00:31:25;;;;;;;10.03;1.40;;;3.30;99.90;;;;;;5073224;28;20171;-71
2024/01/27 00:33:50;;;;;;;13.50;2.50;;;3.30;99.90;;;;;;5073436;28;20179;-71
2024/01/27 00:36:16;;;;;;;5.97;2.30;;;3.30;99.90;;;;;;5073074;28;20198;-71
2024/01/27 00:38:42;;;;;;;14.37;2.63;;;3.20;99.90;;;;;;5071866;28;20194;-71
2024/01/27 00:41:09;;;;;;;5.30;1.67;;;3.30;99.90;;;;;;5073354;28;20489;-70
2024/01/27 00:43:35;;;;;;;9.40;2.23;;;3.20;99.90;;;;;;5073257;28;20163;-71
2024/01/27 00:46:01;;;;;;;6.23;2.00;;;3.20;99.90;;;;;;5072739;28;20424;-71
2024/01/27 00:48:26;;;;;;;6.70;1.80;;;3.30;99.90;;;;;;5073041;28;20231;-71
2024/01/27 00:50:52;;;;;;;3.97;1.83;;;3.30;99.90;;;;;;5073118;28;20177;-71
2024/01/27 00:53:17;;;;;;;5.50;1.80;;;3.30;99.90;;;;;;5072897;28;20186;-71
2024/01/27 00:55:43;;;;;;;7.10;2.57;;;3.20;99.90;;;;;;5072664;28;20817;-71
2024/01/27 00:58:08;;;;;;;7.67;1.83;;;3.30;99.90;;;;;;5072756;28;20166;-71
2024/01/27 01:00:34;;;;;;;3.17;2.00;;;3.20;99.90;;;;;;5071658;28;20174;-69
2024/01/27 01:02:59;;;;;;;4.57;1.53;;;3.20;99.90;;;;;;5072933;28;20170;-70
2024/01/27 01:05:25;;;;;;;8.40;2.33;;;3.20;99.90;;;;;;5072749;28;20190;-70
2024/01/27 01:07:50;;;;;;;2.70;1.80;;;3.20;99.90;;;;;;5072715;28;20638;-70
2024/01/27 01:10:16;;;;;;;3.43;2.43;;;3.10;99.90;;;;;;5072730;28;20166;-71
2024/01/27 01:12:42;;;;;;;11.27;2.43;;;3.20;99.90;;;;;;5072638;28;20172;-70
2024/01/27 01:15:08;;;;;;;2.60;1.90;;;3.10;99.90;;;;;;5072477;28;20194;-71
2024/01/27 01:17:33;;;;;;;7.37;1.73;;;3.10;99.90;;;;;;5072213;28;20166;-71
2024/01/27 01:19:59;;;;;;;13.83;3.40;;;3.10;99.90;;;;;;5072582;28;20400;-71
2024/01/27 01:22:24;;;;;;;12.00;3.23;;;3.20;99.90;;;;;;5072447;28;20702;-71
2024/01/27 01:24:50;;;;;;;6.30;1.77;;;3.10;99.90;;;;;;5072422;28;20182;-72
2024/01/27 01:27:18;;;;;;;8.40;3.00;;;3.10;99.90;;;;;;5072185;28;20229;-71
2024/01/27 01:29:44;;;;;;;8.63;2.20;;;3.10;99.90;;;;;;5072421;28;20249;-72
2024/01/27 01:32:09;;;;;;;4.57;2.10;;;3.10;99.90;;;;;;5071871;28;20869;-71
2024/01/27 01:34:35;;;;;;;3.30;1.90;;;3.10;99.90;;;;;;5072227;28;20183;-70
2024/01/27 01:37:02;;;;;;;4.87;2.33;;;3.10;99.90;;;;;;5071849;28;20224;-71
2024/01/27 01:39:28;;;;;;;3.23;1.80;;;3.10;99.90;;;;;;5072299;28;20172;-71
2024/01/27 01:41:53;;;;;;;8.57;2.87;;;3.10;99.90;;;;;;5072179;28;20396;-71
2024/01/27 01:44:19;;;;;;;4.13;3.53;;;3.10;99.90;;;;;;5072104;28;20170;-70
2024/01/27 01:46:45;;;;;;;6.40;2.47;;;3.10;99.90;;;;;;5072062;28;20170;-70
2024/01/27 01:49:11;;;;;;;6.33;2.13;;;3.00;99.90;;;;;;5072112;28;20170;-71
2024/01/27 01:51:36;;;;;;;6.40;2.20;;;3.00;99.90;;;;;;5072044;28;20773;-72
2024/01/27 01:54:02;;;;;;;11.63;2.00;;;3.00;99.90;;;;;;5071925;28;20186;-71
2024/01/27 01:56:28;;;;;;;6.90;2.10;;;3.10;99.90;;;;;;5071652;28;20198;-71
2024/01/27 01:58:55;;;;;;;5.87;2.30;;;3.10;99.90;;;;;;5071416;28;20400;-72
2024/01/27 02:01:21;;;;;;;12.47;2.10;;;3.10;99.90;;;;;;5070593;28;20404;-71
2024/01/27 02:03:56;;;;;;;10.13;2.03;;;3.10;99.90;;;;;;5071783;28;20415;-71
2024/01/27 02:06:21;;;;;;;8.00;2.03;;;3.10;99.90;;;;;;5071027;28;20182;-71
2024/01/27 02:08:47;;;;;;;5.10;1.53;;;3.10;99.90;;;;;;5070440;28;20490;-71
2024/01/27 02:11:13;;;;;;;8.00;2.90;;;3.10;99.90;;;;;;5071760;28;20177;-71
2024/01/27 02:13:39;;;;;;;3.33;1.50;;;2.90;99.90;;;;;;5071827;28;20470;-71
2024/01/27 02:16:05;;;;;;;6.73;3.13;;;2.90;99.90;;;;;;5071310;28;20230;-71
2024/01/27 02:18:30;;;;;;;6.03;2.07;;;3.00;99.90;;;;;;5071558;28;20174;-71
2024/01/27 02:20:56;;;;;;;7.70;2.17;;;3.00;99.90;;;;;;5071681;28;20440;-71
2024/01/27 02:23:21;;;;;;;8.40;2.43;;;3.00;99.90;;;;;;5071709;28;20656;-71
2024/01/27 02:25:47;;;;;;;16.20;3.57;;;2.90;99.90;;;;;;5071665;28;20200;-71
2024/01/27 02:28:13;;;;;;;4.50;2.13;;;2.90;99.90;;;;;;5071370;28;20265;-71
2024/01/27 02:30:38;;;;;;;6.27;2.00;;;2.90;99.90;;;;;;5071567;28;20245;-71
2024/01/27 02:33:04;;;;;;;14.10;2.13;;;2.90;99.90;;;;;;5071784;28;20403;-71
2024/01/27 02:35:30;;;;;;;14.30;2.80;;;2.90;99.90;;;;;;5071444;28;20327;-71
2024/01/27 02:37:55;;;;;;;10.37;3.70;;;2.80;99.90;;;;;;5071242;28;20401;-71
2024/01/27 02:40:21;;;;;;;12.23;2.30;;;2.90;99.90;;;;;;5071484;28;20173;-71
2024/01/27 02:42:47;;;;;;;9.93;2.27;;;2.90;99.90;;;;;;5071523;28;20193;-71
2024/01/27 02:45:12;;;;;;;10.33;2.10;;;2.90;99.90;;;;;;5071509;28;20679;-71
2024/01/27 02:47:38;;;;;;;7.83;3.00;;;2.90;99.90;;;;;;5071161;28;20512;-71
2024/01/27 02:50:06;;;;;;;6.77;2.10;;;3.00;99.90;;;;;;5071357;28;20164;-71
2024/01/27 02:52:31;;;;;;;7.10;2.03;;;3.00;99.90;;;;;;5071414;28;20765;-71
2024/01/27 02:54:57;;;;;;;9.73;2.90;;;2.90;99.90;;;;;;5071362;28;20429;-71
2024/01/27 02:57:23;;;;;;;8.63;1.83;;;2.90;99.90;;;;;;5072110;28;20577;-72
2024/01/27 02:59:49;;;;;;;6.47;2.53;;;2.90;99.90;;;;;;5071471;28;20202;-71
2024/01/27 03:02:15;;;;;;;11.00;3.20;;;2.90;99.90;;;;;;5071078;28;20227;-71
2024/01/27 03:04:40;;;;;;;7.90;2.27;;;2.90;99.90;;;;;;5069789;28;20436;-71
2024/01/27 03:07:06;;;;;;;10.23;2.23;;;2.90;99.90;;;;;;5069804;28;20412;-71
2024/01/27 03:09:32;;;;;;;3.80;1.40;;;2.90;99.90;;;;;;5071992;28;20173;-71
2024/01/27 03:11:58;;;;;;;11.80;2.40;;;3.00;99.90;;;;;;5075001;28;20174;-71
2024/01/27 03:14:24;;;;;;;6.47;2.20;;;3.00;99.90;;;;;;5074885;28;20174;-71
2024/01/27 03:16:49;;;;;;;3.80;2.00;;;3.00;99.90;;;;;;5073257;28;20460;-71
2024/01/27 03:19:15;;;;;;;6.60;2.73;;;3.00;99.90;;;;;;5074784;28;20967;-71
2024/01/27 03:21:40;;;;;;;9.10;2.53;;;2.90;99.90;;;;;;5074824;28;20249;-72
2024/01/27 03:24:09;;;;;;;12.63;2.27;;;2.90;99.90;;;;;;5074803;28;20597;-71
2024/01/27 03:26:34;;;;;;;6.10;1.67;;;2.90;99.90;;;;;;5073206;28;20177;-71
2024/01/27 03:29:00;;;;;;;7.17;1.97;;;2.90;99.90;;;;;;5074648;28;20404;-71
2024/01/27 03:31:34;;;;;;;7.30;2.10;;;2.90;99.90;;;;;;5073368;28;20166;-71
2024/01/27 03:34:00;;;;;;;6.00;2.10;;;2.90;99.90;;;;;;5074578;28;20166;-70
2024/01/27 03:36:26;;;;;;;6.50;2.70;;;2.90;99.90;;;;;;5074157;28;20459;-70
2024/01/27 03:38:51;;;;;;;7.30;2.23;;;2.90;99.90;;;;;;5073216;28;20906;-71
2024/01/27 03:41:17;;;;;;;13.27;3.53;;;3.00;99.90;;;;;;5074447;28;20926;-70
2024/01/27 03:43:42;;;;;;;5.37;2.00;;;3.00;99.90;;;;;;5074546;28;20698;-71
2024/01/27 03:46:08;;;;;;;11.13;2.90;;;3.00;99.90;;;;;;5074227;28;20194;-70
2024/01/27 03:48:35;;;;;;;16.43;2.20;;;3.00;99.90;;;;;;5074291;28;20166;-70
2024/01/27 03:51:00;;;;;;;10.23;2.20;;;3.00;99.90;;;;;;5074347;28;20569;-70
2024/01/27 03:53:26;;;;;;;3.23;2.03;;;3.00;99.90;;;;;;5074117;28;20431;-70
2024/01/27 03:55:52;;;;;;;7.43;2.30;;;2.90;99.90;;;;;;5074093;28;20194;-70
2024/01/27 03:58:17;;;;;;;6.30;1.83;;;3.00;99.90;;;;;;5074182;28;20165;-70
2024/01/27 04:00:43;;;;;;;7.00;2.50;;;3.00;99.90;;;;;;5074082;28;20629;-70
2024/01/27 04:03:09;;;;;;;10.27;2.17;;;3.00;99.90;;;;;;5074064;28;20162;-70
2024/01/27 04:05:36;;;;;;;5.97;1.43;;;2.90;99.90;;;;;;5072778;28;20212;-70
2024/01/27 04:08:01;;;;;;;10.90;2.50;;;2.90;99.90;;;;;;5073900;28;20400;-71
2024/01/27 04:10:27;;;;;;;3.73;2.13;;;2.90;99.90;;;;;;5073905;28;20400;-70
2024/01/27 04:12:52;;;;;;;9.73;2.03;;;2.90;99.90;;;;;;5073913;28;20702;-71
2024/01/27 04:15:18;;;;;;;11.67;2.37;;;2.90;99.90;;;;;;5073403;28;20238;-71
2024/01/27 04:17:44;;;;;;;7.07;1.77;;;2.90;99.90;;;;;;5073467;28;20220;-71
2024/01/27 04:20:10;;;;;;;17.00;2.60;;;2.90;99.90;;;;;;5073516;28;20171;-71
2024/01/27 04:22:36;;;;;;;1.77;1.40;;;2.90;99.90;;;;;;5073375;28;20205;-71
2024/01/27 04:25:02;;;;;;;4.87;2.10;;;2.80;99.90;;;;;;5073695;28;20452;-70
2024/01/27 04:27:27;;;;;;;4.03;1.60;;;2.80;99.90;;;;;;5073380;28;20419;-71
2024/01/27 04:29:53;;;;;;;8.63;1.90;;;2.90;99.90;;;;;;5073522;28;20411;-71
2024/01/27 04:32:19;;;;;;;2.83;1.90;;;2.80;99.90;;;;;;5073407;28;20253;-71
2024/01/27 04:34:44;;;;;;;6.93;2.27;;;2.80;99.90;;;;;;5072045;28;20194;-72
2024/01/27 04:37:10;;;;;;;3.20;1.53;;;2.90;99.90;;;;;;5073238;28;20212;-71
2024/01/27 04:39:35;;;;;;;6.43;1.53;;;2.80;99.90;;;;;;5073394;28;20557;-72
2024/01/27 04:42:01;;;;;;;11.40;2.47;;;2.80;99.90;;;;;;5073272;28;20584;-71
2024/01/27 04:44:27;;;;;;;13.00;2.30;;;2.90;99.90;;;;;;5073053;28;20224;-71
2024/01/27 04:46:52;;;;;;;6.47;2.60;;;2.80;99.90;;;;;;5072760;28;20701;-71
2024/01/27 04:49:18;;;;;;;7.13;2.53;;;2.80;99.90;;;;;;5073029;28;20522;-71
2024/01/27 04:51:43;;;;;;;7.73;1.87;;;2.70;99.90;;;;;;5072133;28;20661;-71
2024/01/27 04:54:09;;;;;;;7.00;1.50;;;2.70;99.90;;;;;;5072834;28;20178;-71
2024/01/27 04:56:34;;;;;;;6.83;2.20;;;2.80;99.90;;;;;;5072748;28;20194;-71
2024/01/27 04:59:00;;;;;;;9.73;2.90;;;2.70;99.90;;;;;;5072826;28;20508;-70
2024/01/27 05:01:25;;;;;;;6.10;2.47;;;2.70;99.90;;;;;;5072862;28;20174;-71
2024/01/27 05:03:51;;;;;;;3.40;1.83;;;2.70;99.90;;;;;;5072678;28;20154;-71
2024/01/27 05:06:17;;;;;;;8.33;3.07;;;2.60;99.90;;;;;;5072354;28;20186;-71
2024/01/27 05:08:43;;;;;;;5.23;2.23;;;2.70;99.90;;;;;;5072540;28;20166;-71
2024/01/27 05:11:09;;;;;;;3.80;1.80;;;2.60;99.90;;;;;;5072469;28;20495;-70
2024/01/27 05:13:35;;;;;;;2.87;1.67;;;2.60;99.90;;;;;;5072762;28;20283;-70
2024/01/27 05:16:00;;;;;;;5.83;1.70;;;2.60;99.90;;;;;;5072312;28;20970;-70
2024/01/27 05:18:26;;;;;;;7.10;2.17;;;2.50;99.90;;;;;;5072539;28;20533;-71
2024/01/27 05:20:51;;;;;;;7.60;2.37;;;2.50;99.90;;;;;;5071275;28;20170;-71
2024/01/27 05:23:17;;;;;;;5.90;1.50;;;2.50;99.90;;;;;;5072514;28;20178;-71
2024/01/27 05:25:42;;;;;;;14.00;2.63;;;2.50;99.90;;;;;;5072437;28;20251;-70
2024/01/27 05:28:08;;;;;;;8.50;2.63;;;2.50;99.90;;;;;;5072190;28;20215;-70
2024/01/27 05:30:33;;;;;;;6.53;2.30;;;2.50;99.90;;;;;;5072365;28;20182;-71
2024/01/27 05:32:59;;;;;;;15.30;2.70;;;2.50;99.90;;;;;;5071462;28;20166;-71
2024/01/27 05:35:24;;;;;;;18.73;2.87;;;2.50;99.90;;;;;;5072347;28;20202;-70
2024/01/27 05:37:51;;;;;;;7.40;2.47;;;2.50;99.90;;;;;;5072080;28;20250;-71
2024/01/27 05:40:17;;;;;;;5.73;2.33;;;2.50;99.90;;;;;;5072215;28;20162;-71
2024/01/27 05:42:44;;;;;;;5.00;2.33;;;2.50;99.90;;;;;;5070943;28;20400;-70
2024/01/27 05:45:10;;;;;;;7.17;2.43;;;2.50;99.90;;;;;;5072038;28;20190;-71
2024/01/27 05:47:36;;;;;;;6.70;1.90;;;2.50;99.90;;;;;;5072247;28;20400;-71
2024/01/27 05:50:02;;;;;;;4.10;1.47;;;2.50;99.90;;;;;;5072141;28;20673;-70
2024/01/27 05:52:28;;;;;;;5.40;1.60;;;2.50;99.90;;;;;;5072111;28;20169;-71
2024/01/27 05:54:54;;;;;;;10.73;3.17;;;2.50;99.90;;;;;;5071881;28;20467;-71
2024/01/27 05:57:19;;;;;;;4.57;1.97;;;2.50;99.90;;;;;;5071835;28;20167;-72
2024/01/27 05:59:45;;;;;;;12.47;2.90;;;2.50;99.90;;;;;;5071947;28;20401;-71
2024/01/27 06:02:11;;;;;;;5.03;1.60;;;2.50;99.90;;;;;;5072041;28;20245;-71
2024/01/27 06:04:36;;;;;;;5.27;1.70;;;2.50;99.90;;;;;;5071921;28;20291;-71
2024/01/27 06:07:02;;;;;;;5.13;1.83;;;2.50;99.90;;;;;;5071685;28;20165;-71
2024/01/27 06:09:27;;;;;;;7.47;2.43;;;2.50;99.90;;;;;;5071868;28;20165;-71
2024/01/27 06:11:53;;;;;;;3.87;2.00;;;2.50;99.90;;;;;;5071870;28;20172;-71
2024/01/27 06:14:18;;;;;;;10.70;2.57;;;2.50;99.90;;;;;;5071702;28;20166;-71
2024/01/27 06:16:44;;;;;;;4.10;1.77;;;2.50;99.90;;;;;;5070206;28;20201;-71
2024/01/27 06:19:09;;;;;;;5.27;1.87;;;2.50;99.90;;;;;;5071806;28;20269;-71
2024/01/27 06:21:35;;;;;;;4.37;1.77;;;2.50;99.90;;;;;;5071748;28;20162;-70
2024/01/27 06:24:00;;;;;;;6.73;2.10;;;2.40;99.90;;;;;;5071698;28;20170;-70
2024/01/27 06:26:26;;;;;;;6.13;2.47;;;2.40;99.90;;;;;;5071617;28;20672;-70
2024/01/27 06:28:52;;;;;;;3.67;1.50;;;2.40;99.90;;;;;;5071714;28;20249;-70
2024/01/27 06:31:17;;;;;;;6.07;2.30;;;2.40;99.90;;;;;;5071702;28;20226;-70
2024/01/27 06:33:43;;;;;;;5.27;1.70;;;2.30;99.90;;;;;;5071812;28;20508;-70
2024/01/27 06:36:09;;;;;;;7.20;1.90;;;2.30;99.90;;;;;;5071458;28;20546;-70
2024/01/27 06:38:37;;;;;;;12.50;2.10;;;2.30;99.90;;;;;;5071632;28;20162;-70
2024/01/27 06:41:03;;;;;;;2.60;1.50;;;2.30;99.90;;;;;;5071543;28;20396;-71
2024/01/27 06:43:29;;;;;;;2.40;1.77;;;2.30;99.90;;;;;;5071681;28;20411;-71
2024/01/27 06:45:56;;;;;;;5.47;2.20;;;2.30;99.90;;;;;;5075465;28;20751;-71
2024/01/27 06:48:24;;;;;;;9.10;1.87;;;2.30;99.90;;;;;;5075142;28;20166;-70
2024/01/27 06:50:50;;;;;;;8.80;1.83;;;2.40;99.90;;;;;;5075472;28;20487;-71
2024/01/27 06:53:16;;;;;;;1.80;1.30;;;2.30;99.90;;;;;;5075202;28;20574;-70
2024/01/27 06:55:41;;;;;;;7.20;2.03;;;2.30;99.90;;;;;;5075224;28;20194;-72
2024/01/27 06:58:06;;;;;;;4.53;1.47;;;2.30;99.90;;;;;;5074958;28;20171;-71
2024/01/27 07:00:32;;;;;;;4.70;1.43;;;2.30;99.90;;;;;;5075230;28;20210;-71
2024/01/27 07:02:58;;;;;;;7.80;2.53;;;2.20;99.90;;;;;;5075083;28;20162;-71
2024/01/27 07:05:23;;;;;;;2.93;1.50;;;2.20;99.90;;;;;;5075038;28;20846;-71
2024/01/27 07:07:49;;;;;;;10.10;2.67;;;2.20;99.90;;;;;;5074903;28;20400;-70
2024/01/27 07:10:15;;;;;;;8.87;2.20;;;2.20;99.90;;;;;;5075112;28;20597;-71
2024/01/27 07:12:40;;;;;;;6.60;2.17;;;2.20;99.90;;;;;;5075032;28;20402;-70
2024/01/27 07:15:06;;;;;;;4.20;1.77;;;2.20;99.90;;;;;;5074810;28;20250;-70
2024/01/27 07:17:32;;;;;;;4.40;1.73;;;2.20;99.90;;;;;;5073651;28;20223;-70
2024/01/27 07:19:57;;;;;;;3.20;1.37;;;2.10;99.90;;;;;;5074970;28;20162;-69
2024/01/27 07:22:24;;;;;;;9.13;2.60;;;2.10;99.90;;;;;;5074896;28;20170;-71
2024/01/27 07:24:51;;;;;;;7.43;1.80;;;2.20;99.90;;;;;;5074968;28;20261;-70
2024/01/27 07:27:17;;;;;;;8.07;2.70;;;2.10;99.90;;;;;;5073116;28;20898;-71
2024/01/27 07:29:42;;;;;;;3.80;2.17;;;2.10;99.90;;;;;;5074661;28;20397;-71
2024/01/27 07:32:13;;;;;;;7.67;1.90;;;2.20;99.90;;;;;;5074497;28;20166;-70
2024/01/27 07:34:42;;;;;;;10.53;1.97;;;2.20;99.90;;;;;;5073358;28;20186;-70
2024/01/27 07:37:08;;;;;;;10.97;2.20;;;2.20;99.90;;;;;;5074351;28;20444;-71
2024/01/27 07:39:34;;;;;;;6.00;2.50;;;2.20;99.90;;;;;;5073249;28;20466;-71
2024/01/27 07:42:00;;;;;;;5.87;2.13;;;2.20;99.90;;;;;;5074412;28;20400;-71
2024/01/27 07:44:25;;;;;;;1.93;1.80;;;2.20;99.90;;;;;;5074218;28;20206;-72
2024/01/27 07:46:51;;;;;;;10.00;5.93;;;2.30;99.90;;;;;;5074196;28;20170;-72
2024/01/27 07:49:17;;;;;;;12.43;4.50;;;2.30;99.90;;;;;;5074344;28;20602;-67
2024/01/27 07:51:43;;;;;;;3.00;2.60;;;2.40;99.90;;;;;;5070854;28;20702;-66
2024/01/27 07:54:08;;;;;;;5.83;2.03;;;2.50;99.90;;;;;;5074049;28;20428;-67
2024/01/27 07:56:34;;;;;;;3.33;1.90;;;2.60;99.90;;;;;;5072934;28;20272;-67
2024/01/27 07:59:00;;;;;;;7.63;2.87;;;2.70;99.90;;;;;;5074219;28;20200;-67
2024/01/27 08:01:25;;;;;;;6.77;2.27;;;2.90;99.90;;;;;;5074120;28;20245;-67
2024/01/27 08:03:51;;;;;;;18.40;2.87;;;3.00;99.90;;;;;;5074059;28;20158;-67
2024/01/27 08:06:18;;;;;;;6.00;2.40;;;3.10;99.90;;;;;;5073844;28;20228;-67
2024/01/27 08:08:48;;;;;;;9.60;2.40;;;3.20;99.90;;;;;;5073967;28;20200;-67
2024/01/27 08:11:15;;;;;;;13.83;2.20;;;3.30;99.90;;;;;;5073901;28;20834;-67
2024/01/27 08:13:41;;;;;;;4.20;2.10;;;3.40;99.90;;;;;;5073777;28;20922;-68
2024/01/27 08:16:09;;;;;;;3.37;1.60;;;3.70;99.90;;;;;;5073441;28;20456;-67
2024/01/27 08:18:36;;;;;;;4.80;1.63;;;4.60;99.90;;;;;;5073712;28;20393;-67
2024/01/27 08:21:02;;;;;;;5.47;1.77;;;5.80;99.90;;;;;;5073828;28;20813;-68
2024/01/27 08:23:28;;;;;;;4.40;1.90;;;7.30;99.90;;;;;;5073371;28;20405;-66
2024/01/27 08:25:53;;;;;;;2.27;1.90;;;8.90;99.90;;;;;;5073438;28;20435;-67
2024/01/27 08:28:19;;;;;;;4.57;2.30;;;10.10;99.90;;;;;;5073326;28;20171;-67
2024/01/27 08:30:44;;;;;;;5.40;1.97;;;11.50;99.90;;;;;;5073518;28;20531;-67
2024/01/27 08:33:10;;;;;;;5.70;1.70;;;13.00;99.90;;;;;;5073520;28;20174;-67
2024/01/27 08:35:35;;;;;;;8.20;2.50;;;14.40;98.00;;;;;;5073373;28;20692;-67
2024/01/27 08:38:03;;;;;;;5.97;2.20;;;15.50;89.70;;;;;;5072988;28;20166;-67
2024/01/27 08:40:29;;;;;;;4.73;2.33;;;16.60;75.50;;;;;;5073354;28;20215;-68
2024/01/27 08:42:54;;;;;;;9.20;2.17;;;17.70;70.10;;;;;;5073072;28;20396;-67
2024/01/27 08:45:20;;;;;;;5.97;2.27;;;18.50;55.50;;;;;;5073293;28;20238;-67
2024/01/27 08:47:45;;;;;;;5.93;2.30;;;19.30;52.90;;;;;;5073135;28;20162;-68
2024/01/27 08:50:11;;;;;;;11.90;2.73;;;19.90;48.60;;;;;;5072005;28;20838;-67
2024/01/27 08:52:36;;;;;;;5.80;3.20;;;20.60;47.20;;;;;;5072705;28;20232;-67
2024/01/27 08:55:02;;;;;;;5.90;3.40;;;20.80;42.00;;;;;;5072853;28;20190;-67
2024/01/27 08:57:28;;;;;;;5.73;2.50;;;21.40;41.50;;;;;;5071931;28;20166;-67
2024/01/27 08:59:53;;;;;;;7.80;2.23;;;21.60;40.10;;;;;;5073088;28;20658;-67
2024/01/27 09:02:19;;;;;;;7.77;3.30;;;21.20;38.00;;;;;;5073515;28;20666;-67
2024/01/27 09:04:45;;;;;;;3.90;2.43;;;21.90;39.20;;;;;;5072721;28;20273;-66
2024/01/27 09:07:11;;;;;;;6.17;2.67;;;22.10;37.40;;;;;;5071878;28;20967;-66
2024/01/27 09:09:38;;;;;;;4.20;2.23;;;22.40;37.20;;;;;;5072660;28;20582;-67
2024/01/27 09:12:04;;;;;;;3.90;2.30;;;23.00;37.80;;;;;;5072640;28;20451;-67
2024/01/27 09:14:29;;;;;;;3.27;1.83;;;23.50;36.50;;;;;;5072488;28;21124;-67
2024/01/27 09:16:55;;;;;;;8.10;2.87;;;24.00;34.40;;;;;;5072221;28;20210;-67
2024/01/27 09:19:20;;;;;;;4.17;1.97;;;23.80;34.30;;;;;;5072372;28;20185;-67
2024/01/27 09:21:46;;;;;;;6.30;2.60;;;24.50;33.90;;;;;;5072453;28;20182;-67
2024/01/27 09:24:12;;;;;;;7.40;4.20;;;25.20;32.60;;;;;;5072265;28;20178;-67
2024/01/27 09:26:37;;;;;;;4.40;2.20;;;26.00;32.50;;;;;;5072022;28;20763;-68
2024/01/27 09:29:03;;;;;;;4.10;2.27;;;26.90;32.70;;;;;;5072091;28;20591;-65
2024/01/27 09:31:28;;;;;;;3.00;2.10;;;27.60;30.80;;;;;;5072191;28;20158;-65
2024/01/27 09:33:54;;;;;;;6.17;2.40;;;27.80;28.60;;;;;;5072153;28;20178;-65
2024/01/27 09:36:20;;;;;;;5.43;2.67;;;28.60;30.00;;;;;;5071730;28;20280;-65
2024/01/27 09:38:46;;;;;;;4.83;2.50;;;29.60;30.30;;;;;;5072105;28;20644;-64
2024/01/27 09:41:14;;;;;;;8.30;2.67;;;29.10;26.60;;;;;;5072141;28;20505;-66
2024/01/27 09:43:48;;;;;;;4.73;2.00;;;28.50;26.90;;;;;;5072034;28;20785;-64
2024/01/27 09:46:17;;;;;;;6.87;2.67;;;28.20;27.70;;;;;;5051799;28;20842;-65
2024/01/27 09:48:43;;;;;;;9.07;6.97;;;27.70;27.60;;;;;;5051692;28;20878;-65
2024/01/27 09:51:10;;;;;;;2.77;2.43;;;28.10;28.50;;;;;;5071567;28;20451;-64
2024/01/27 09:53:37;;;;;;;8.20;2.50;;;28.60;26.90;;;;;;5071873;28;20431;-67
2024/01/27 09:56:03;;;;;;;6.27;2.97;;;28.70;26.60;;;;;;5071641;28;20475;-67
2024/01/27 09:58:30;;;;;;;4.10;2.00;;;28.00;26.70;;;;;;5071322;28;20445;-64
2024/01/27 10:01:00;;;;;;;3.93;1.97;;;27.90;26.60;;;;;;5070749;28;20455;-64
2024/01/27 10:03:27;;;;;;;7.63;2.70;;;28.50;27.00;;;;;;5071789;28;20432;-66
2024/01/27 10:05:54;;;;;;;5.57;2.37;;;29.10;26.30;;;;;;5090852;28;20516;-67
2024/01/27 10:08:24;;;;;;;8.47;2.20;;;29.40;25.90;;;;;;5091368;28;20914;-66
2024/01/27 10:10:56;;;;;;;7.30;2.30;;;29.40;25.20;;;;;;5091837;28;20916;-65
2024/01/27 10:13:28;;;;;;;6.10;1.83;;;28.90;25.00;;;;;;5091984;28;20407;-65
2024/01/27 10:16:04;;;;;;;4.73;2.20;;;29.30;25.70;;;;;;5091922;28;20550;-65
2024/01/27 10:18:30;;;;;;;6.73;2.50;;;29.70;24.90;;;;;;5091403;28;20411;-66
2024/01/27 10:20:56;;;;;;;5.93;1.87;;;30.00;24.80;;;;;;5092005;28;20898;-66
2024/01/27 10:23:22;;;;;;;6.70;2.20;;;30.50;24.70;;;;;;5091840;28;20454;-65
2024/01/27 10:25:48;;;;;;;5.13;1.93;;;31.30;24.80;;;;;;5091876;28;20189;-65
2024/01/27 10:28:14;;;;;;;6.13;2.80;;;31.10;23.50;;;;;;5091661;28;20173;-65
2024/01/27 10:30:40;;;;;;;4.53;2.47;;;31.20;23.50;;;;;;5091969;28;20959;-66
2024/01/27 10:33:10;;;;;;;4.63;2.27;;;31.50;23.50;;;;;;5091819;28;20169;-66
2024/01/27 10:35:35;;;;;;;4.90;3.30;;;32.00;24.20;;;;;;5092013;28;20194;-69
2024/01/27 10:38:01;;;;;;;5.00;2.60;;;32.80;24.30;;;;;;5091734;28;20936;-69
2024/01/27 10:40:27;;;;;;;5.23;2.47;;;32.80;23.00;;;;;;5091791;28;20666;-69
2024/01/27 10:43:02;;;;;;;5.73;2.40;;;33.00;22.60;;;;;;5091817;28;20170;-69
2024/01/27 10:45:39;;;;;;;4.50;2.40;;;33.30;23.10;;;;;;5091810;28;20257;-69
2024/01/27 10:48:06;;;;;;;4.20;2.33;;;34.60;23.90;;;;;;5090207;28;20406;-68
2024/01/27 10:50:37;;;;;;;9.97;7.77;;;34.90;22.50;;;;;;5091561;28;20400;-68
2024/01/27 10:53:05;;;;;;;8.57;2.87;;;34.20;21.40;;;;;;5091269;28;20419;-68
2024/01/27 10:55:34;;;;;;;4.80;2.20;;;32.50;21.60;;;;;;5091409;28;21011;-68
2024/01/27 10:58:02;;;;;;;3.77;2.53;;;29.90;21.90;;;;;;5091376;28;20412;-68
2024/01/27 11:00:28;;;;;;;5.63;1.90;;;28.40;23.20;;;;;;5091552;28;20494;-68
2024/01/27 11:02:58;;;;;;;7.23;2.13;;;26.80;23.80;;;;;;5091610;28;20408;-67
2024/01/27 11:05:24;;;;;;;4.47;2.27;;;25.90;25.10;;;;;;5090228;28;20427;-68
2024/01/27 11:07:51;;;;;;;3.97;2.10;;;26.80;26.20;;;;;;5091176;28;20416;-68
2024/01/27 11:10:18;;;;;;;7.47;2.37;;;28.30;26.00;;;;;;5090261;28;20525;-68
2024/01/27 11:12:44;;;;;;;5.83;2.63;;;30.10;24.80;;;;;;5091532;28;20783;-68
2024/01/27 11:15:10;;;;;;;3.47;2.07;;;31.10;24.00;;;;;;5090087;28;20534;-68
2024/01/27 11:17:42;;;;;;;3.50;1.90;;;30.50;22.90;;;;;;5091295;28;20949;-68
2024/01/27 11:20:11;;;;;;;4.30;1.87;;;31.00;23.80;;;;;;5090236;28;20162;-68
2024/01/27 11:22:37;;;;;;;3.40;2.20;;;31.90;23.60;;;;;;5091373;28;20909;-70
2024/01/27 11:25:15;;;;;;;10.27;3.17;;;33.40;23.60;;;;;;5091411;28;20488;-68
2024/01/27 11:27:43;;;;;;;12.17;2.50;;;35.00;23.20;;;;;;5091139;28;20491;-68
2024/01/27 11:30:28;;;;;;;5.20;2.10;;;36.40;22.50;;;;;;5091319;28;20400;-69
2024/01/27 11:33:00;;;;;;;5.73;2.77;;;37.70;21.90;;;;;;5095163;28;20399;-70
2024/01/27 11:35:25;;;;;;;4.83;2.60;;;38.20;19.90;;;;;;5094651;28;20539;-71
2024/01/27 11:37:51;;;;;;;7.03;3.43;;;39.10;20.80;;;;;;5094582;28;20431;-71
2024/01/27 11:40:17;;;;;;;5.70;2.73;;;39.80;20.70;;;;;;5094810;28;20168;-71
2024/01/27 11:42:43;;;;;;;4.87;2.70;;;40.40;20.30;;;;;;5094666;28;20400;-71
2024/01/27 11:45:09;;;;;;;4.90;2.57;;;40.70;20.20;;;;;;5094722;28;20181;-71
2024/01/27 11:47:35;;;;;;;3.70;2.50;;;41.00;18.90;;;;;;5094308;28;20157;-71
2024/01/27 11:50:03;;;;;;;5.20;2.47;;;41.20;18.50;;;;;;5094822;28;20415;-70
2024/01/27 11:52:28;;;;;;;4.80;2.77;;;41.70;19.10;;;;;;5094847;28;20165;-71
2024/01/27 11:54:55;;;;;;;6.10;3.07;;;42.20;19.30;;;;;;5094780;28;20832;-70
2024/01/27 11:57:20;;;;;;;3.80;2.37;;;42.60;18.90;;;;;;5094417;28;20197;-71
2024/01/27 11:59:46;;;;;;;7.97;2.73;;;43.00;18.70;;;;;;5094803;28;20495;-71
2024/01/27 12:02:11;;;;;;;4.13;2.50;;;43.30;18.70;;;;;;5094808;28;20157;-71
2024/01/27 12:04:37;;;;;;;3.50;2.37;;;43.60;18.50;;;;;;5094757;28;20185;-71
2024/01/27 12:07:03;;;;;;;4.53;2.40;;;43.90;18.30;;;;;;5094505;28;20161;-71
2024/01/27 12:09:28;;;;;;;5.87;2.30;;;44.00;17.80;;;;;;5094577;28;20162;-70
2024/01/27 12:11:54;;;;;;;5.50;2.90;;;43.60;16.50;;;;;;5094631;28;20468;-70
2024/01/27 12:14:19;;;;;;;6.00;2.30;;;43.50;17.40;;;;;;5094224;28;20201;-70
2024/01/27 12:16:47;;;;;;;3.00;2.23;;;43.80;17.70;;;;;;5094124;28;20279;-71
2024/01/27 12:19:13;;;;;;;4.63;2.77;;;44.00;17.50;;;;;;5094358;28;20240;-70
2024/01/27 12:21:38;;;;;;;3.87;2.73;;;44.00;17.40;;;;;;5094361;28;20443;-72
2024/01/27 12:24:04;;;;;;;4.63;2.80;;;44.20;17.50;;;;;;5094619;28;20162;-71
2024/01/27 12:26:30;;;;;;;6.00;2.47;;;44.20;17.20;;;;;;5093723;28;20225;-70
2024/01/27 12:28:57;;;;;;;6.33;3.20;;;43.10;15.40;;;;;;5093985;28;20625;-69
2024/01/27 12:31:23;;;;;;;4.80;2.27;;;42.60;15.90;;;;;;5094009;28;20926;-68
2024/01/27 12:33:53;;;;;;;7.67;2.70;;;41.20;15.40;;;;;;5093931;28;20540;-68
2024/01/27 12:36:20;;;;;;;8.13;5.80;;;40.40;16.30;;;;;;5093828;28;20813;-68
2024/01/27 12:38:59;;;;;;;6.50;3.20;;;39.90;16.90;;;;;;5093693;28;20392;-69
2024/01/27 12:41:29;;;;;;;4.80;2.43;;;39.50;17.00;;;;;;5093357;28;20400;-69
2024/01/27 12:43:55;;;;;;;3.00;2.47;;;39.50;17.50;;;;;;5093854;28;20491;-68
2024/01/27 12:46:21;;;;;;;4.90;2.57;;;39.40;17.60;;;;;;5093347;28;20867;-69
2024/01/27 12:48:47;;;;;;;9.47;2.67;;;39.20;17.20;;;;;;5093827;28;20413;-69